sensor_id;sensor_type;location;lat;lon;timestamp;pressure;altitude;pressure_sealevel;temperature;humidity
58018;BME280;43810;50.860;19.226;2023-03-07T00:00:35;97291.16;;;0.08;84.69
58018;BME280;43810;50.860;19.226;2023-03-07T00:03:16;97286.72;;;0.09;84.85
58018;BME280;43810;50.860;19.226;2023-03-07T00:05:42;97284.41;;;-0.06;85.13
58018;BME280;43810;50.860;19.226;2023-03-07T00:08:09;97292.03;;;-0.10;85.39
58018;BME280;43810;50.860;19.226;2023-03-07T00:10:35;97283.63;;;-0.07;85.66
58018;BME280;43810;50.860;19.226;2023-03-07T00:13:01;97285.19;;;-0.06;85.73
58018;BME280;43810;50.860;19.226;2023-03-07T00:15:29;97285.69;;;-0.04;85.52
58018;BME280;43810;50.860;19.226;2023-03-07T00:17:55;97278.91;;;-0.05;85.36
58018;BME280;43810;50.860;19.226;2023-03-07T00:20:21;97273.00;;;-0.11;85.17
58018;BME280;43810;50.860;19.226;2023-03-07T00:22:47;97281.88;;;-0.12;85.02
58018;BME280;43810;50.860;19.226;2023-03-07T00:25:13;97279.75;;;-0.10;84.82
58018;BME280;43810;50.860;19.226;2023-03-07T00:27:40;97277.44;;;-0.25;84.83
58018;BME280;43810;50.860;19.226;2023-03-07T00:30:07;97271.13;;;-0.37;85.00
58018;BME280;43810;50.860;19.226;2023-03-07T00:32:34;97279.56;;;-0.40;85.39
58018;BME280;43810;50.860;19.226;2023-03-07T00:35:00;97279.06;;;-0.42;85.63
58018;BME280;43810;50.860;19.226;2023-03-07T00:37:26;97271.47;;;-0.39;85.68
58018;BME280;43810;50.860;19.226;2023-03-07T00:39:52;97272.50;;;-0.40;85.51
58018;BME280;43810;50.860;19.226;2023-03-07T00:42:18;97270.19;;;-0.41;85.60
58018;BME280;43810;50.860;19.226;2023-03-07T00:44:44;97266.88;;;-0.47;86.06
58018;BME280;43810;50.860;19.226;2023-03-07T00:47:10;97257.22;;;-0.47;86.00
58018;BME280;43810;50.860;19.226;2023-03-07T00:49:36;97255.00;;;-0.53;85.73
58018;BME280;43810;50.860;19.226;2023-03-07T00:52:02;97256.06;;;-0.54;85.96
58018;BME280;43810;50.860;19.226;2023-03-07T00:54:28;97255.78;;;-0.53;85.77
58018;BME280;43810;50.860;19.226;2023-03-07T00:56:54;97259.34;;;-0.62;85.54
58018;BME280;43810;50.860;19.226;2023-03-07T00:59:20;97260.41;;;-0.63;85.64
58018;BME280;43810;50.860;19.226;2023-03-07T01:01:45;97251.84;;;-0.83;85.31
58018;BME280;43810;50.860;19.226;2023-03-07T01:04:12;97251.13;;;-1.02;85.90
58018;BME280;43810;50.860;19.226;2023-03-07T01:06:37;97257.28;;;-1.11;86.56
58018;BME280;43810;50.860;19.226;2023-03-07T01:09:05;97251.00;;;-1.10;86.96
58018;BME280;43810;50.860;19.226;2023-03-07T01:11:35;97248.69;;;-1.12;87.10
58018;BME280;43810;50.860;19.226;2023-03-07T01:14:03;97253.34;;;-1.09;87.42
58018;BME280;43810;50.860;19.226;2023-03-07T01:16:33;97250.06;;;-1.01;87.36
58018;BME280;43810;50.860;19.226;2023-03-07T01:19:07;97252.13;;;-0.98;87.18
58018;BME280;43810;50.860;19.226;2023-03-07T01:21:37;97239.47;;;-0.91;87.30
58018;BME280;43810;50.860;19.226;2023-03-07T01:24:08;97240.31;;;-0.95;87.14
58018;BME280;43810;50.860;19.226;2023-03-07T01:26:34;97235.50;;;-1.02;86.97
58018;BME280;43810;50.860;19.226;2023-03-07T01:29:02;97244.38;;;-1.03;87.21
58018;BME280;43810;50.860;19.226;2023-03-07T01:31:28;97246.47;;;-1.05;87.22
58018;BME280;43810;50.860;19.226;2023-03-07T01:33:55;97233.88;;;-0.98;87.45
58018;BME280;43810;50.860;19.226;2023-03-07T01:38:53;97234.50;;;-0.73;88.10
58018;BME280;43810;50.860;19.226;2023-03-07T01:41:19;97235.41;;;-0.51;87.76
58018;BME280;43810;50.860;19.226;2023-03-07T01:43:46;97240.31;;;-0.35;87.39
58018;BME280;43810;50.860;19.226;2023-03-07T01:48:52;97242.44;;;-0.10;86.17
58018;BME280;43810;50.860;19.226;2023-03-07T01:51:19;97244.19;;;-0.05;86.55
58018;BME280;43810;50.860;19.226;2023-03-07T01:53:46;97228.50;;;0.08;86.45
58018;BME280;43810;50.860;19.226;2023-03-07T01:56:13;97237.00;;;0.14;86.12
58018;BME280;43810;50.860;19.226;2023-03-07T01:58:40;97233.91;;;0.12;86.28
58018;BME280;43810;50.860;19.226;2023-03-07T02:01:09;97229.44;;;0.26;86.15
58018;BME280;43810;50.860;19.226;2023-03-07T02:04:00;97228.16;;;0.37;86.21
58018;BME280;43810;50.860;19.226;2023-03-07T02:06:29;97229.56;;;0.43;85.79
58018;BME280;43810;50.860;19.226;2023-03-07T02:08:57;97226.50;;;0.41;85.28
58018;BME280;43810;50.860;19.226;2023-03-07T02:11:24;97221.81;;;0.52;85.29
58018;BME280;43810;50.860;19.226;2023-03-07T02:13:51;97223.47;;;0.48;85.13
58018;BME280;43810;50.860;19.226;2023-03-07T02:16:16;97225.03;;;0.49;85.15
58018;BME280;43810;50.860;19.226;2023-03-07T02:18:44;97220.91;;;0.56;85.23
58018;BME280;43810;50.860;19.226;2023-03-07T02:21:25;97224.38;;;0.66;85.13
58018;BME280;43810;50.860;19.226;2023-03-07T02:26:45;97222.53;;;0.66;84.79
58018;BME280;43810;50.860;19.226;2023-03-07T02:29:12;97226.34;;;0.60;84.52
58018;BME280;43810;50.860;19.226;2023-03-07T02:31:39;97207.38;;;0.54;84.79
58018;BME280;43810;50.860;19.226;2023-03-07T02:36:52;97218.00;;;0.58;84.92
58018;BME280;43810;50.860;19.226;2023-03-07T02:39:19;97224.84;;;0.68;84.48
58018;BME280;43810;50.860;19.226;2023-03-07T02:41:48;97218.22;;;0.61;84.57
58018;BME280;43810;50.860;19.226;2023-03-07T02:44:16;97222.72;;;0.70;84.79
58018;BME280;43810;50.860;19.226;2023-03-07T02:46:41;97221.22;;;0.77;84.17
58018;BME280;43810;50.860;19.226;2023-03-07T02:49:07;97222.94;;;0.82;83.99
58018;BME280;43810;50.860;19.226;2023-03-07T02:51:33;97220.94;;;0.79;83.83
58018;BME280;43810;50.860;19.226;2023-03-07T02:53:59;97211.09;;;0.76;83.89
58018;BME280;43810;50.860;19.226;2023-03-07T02:56:25;97220.09;;;0.70;84.04
58018;BME280;43810;50.860;19.226;2023-03-07T02:58:51;97208.69;;;0.66;84.09
58018;BME280;43810;50.860;19.226;2023-03-07T03:01:16;97213.03;;;0.70;84.15
58018;BME280;43810;50.860;19.226;2023-03-07T03:03:42;97212.38;;;0.65;83.97
58018;BME280;43810;50.860;19.226;2023-03-07T03:06:09;97208.03;;;0.60;84.29
58018;BME280;43810;50.860;19.226;2023-03-07T03:08:34;97204.38;;;0.61;84.25
58018;BME280;43810;50.860;19.226;2023-03-07T03:11:00;97201.06;;;0.55;84.61
58018;BME280;43810;50.860;19.226;2023-03-07T03:13:26;97205.72;;;0.58;84.80
58018;BME280;43810;50.860;19.226;2023-03-07T03:15:55;97205.91;;;0.62;84.50
58018;BME280;43810;50.860;19.226;2023-03-07T03:18:31;97205.25;;;0.56;84.61
58018;BME280;43810;50.860;19.226;2023-03-07T03:20:56;97206.50;;;0.59;84.54
58018;BME280;43810;50.860;19.226;2023-03-07T03:23:22;97205.47;;;0.69;84.15
58018;BME280;43810;50.860;19.226;2023-03-07T03:25:59;97206.25;;;0.69;84.10
58018;BME280;43810;50.860;19.226;2023-03-07T03:28:25;97200.84;;;0.66;83.94
58018;BME280;43810;50.860;19.226;2023-03-07T03:31:11;97205.19;;;0.70;84.01
58018;BME280;43810;50.860;19.226;2023-03-07T03:33:41;97201.47;;;0.62;84.21
58018;BME280;43810;50.860;19.226;2023-03-07T03:36:13;97199.09;;;0.52;84.42
58018;BME280;43810;50.860;19.226;2023-03-07T03:38:40;97190.47;;;0.52;84.65
58018;BME280;43810;50.860;19.226;2023-03-07T03:41:07;97198.94;;;0.57;84.56
58018;BME280;43810;50.860;19.226;2023-03-07T03:43:33;97198.66;;;0.59;84.51
58018;BME280;43810;50.860;19.226;2023-03-07T03:45:59;97203.69;;;0.55;84.48
58018;BME280;43810;50.860;19.226;2023-03-07T03:48:26;97195.84;;;0.55;85.04
58018;BME280;43810;50.860;19.226;2023-03-07T03:53:28;97209.00;;;0.64;84.89
58018;BME280;43810;50.860;19.226;2023-03-07T03:58:28;97205.53;;;0.55;85.13
58018;BME280;43810;50.860;19.226;2023-03-07T04:00:54;97210.22;;;0.67;85.08
58018;BME280;43810;50.860;19.226;2023-03-07T04:03:20;97201.41;;;0.76;85.09
58018;BME280;43810;50.860;19.226;2023-03-07T04:05:46;97208.00;;;0.74;84.74
58018;BME280;43810;50.860;19.226;2023-03-07T04:08:12;97200.78;;;0.79;84.80
58018;BME280;43810;50.860;19.226;2023-03-07T04:10:39;97209.09;;;0.81;84.46
58018;BME280;43810;50.860;19.226;2023-03-07T04:13:04;97203.59;;;0.83;84.77
58018;BME280;43810;50.860;19.226;2023-03-07T04:15:30;97195.41;;;0.76;84.52
58018;BME280;43810;50.860;19.226;2023-03-07T04:17:56;97206.94;;;0.75;84.60
58018;BME280;43810;50.860;19.226;2023-03-07T04:20:22;97197.09;;;0.80;85.06
58018;BME280;43810;50.860;19.226;2023-03-07T04:22:48;97204.53;;;0.87;85.01
58018;BME280;43810;50.860;19.226;2023-03-07T04:25:13;97209.78;;;0.87;84.95
58018;BME280;43810;50.860;19.226;2023-03-07T04:27:39;97193.25;;;0.78;85.04
58018;BME280;43810;50.860;19.226;2023-03-07T04:30:05;97192.66;;;0.81;84.98
58018;BME280;43810;50.860;19.226;2023-03-07T04:32:31;97191.75;;;0.85;84.98
58018;BME280;43810;50.860;19.226;2023-03-07T04:34:57;97197.69;;;0.77;85.28
58018;BME280;43810;50.860;19.226;2023-03-07T04:37:23;97205.25;;;0.79;85.82
58018;BME280;43810;50.860;19.226;2023-03-07T04:39:49;97196.03;;;0.81;85.92
58018;BME280;43810;50.860;19.226;2023-03-07T04:42:15;97202.19;;;0.77;86.23
58018;BME280;43810;50.860;19.226;2023-03-07T04:44:40;97187.91;;;0.83;86.37
58018;BME280;43810;50.860;19.226;2023-03-07T04:47:06;97191.59;;;0.82;86.20
58018;BME280;43810;50.860;19.226;2023-03-07T04:49:32;97195.16;;;0.86;86.07
58018;BME280;43810;50.860;19.226;2023-03-07T04:51:58;97201.75;;;0.83;86.20
58018;BME280;43810;50.860;19.226;2023-03-07T04:54:23;97188.38;;;0.85;86.78
58018;BME280;43810;50.860;19.226;2023-03-07T04:56:49;97188.25;;;0.90;86.31
58018;BME280;43810;50.860;19.226;2023-03-07T04:59:15;97192.28;;;0.96;86.32
58018;BME280;43810;50.860;19.226;2023-03-07T05:01:41;97191.34;;;0.92;86.22
58018;BME280;43810;50.860;19.226;2023-03-07T05:04:06;97184.56;;;0.91;86.47
58018;BME280;43810;50.860;19.226;2023-03-07T05:06:33;97183.66;;;0.95;86.37
58018;BME280;43810;50.860;19.226;2023-03-07T05:08:58;97187.69;;;1.02;86.17
58018;BME280;43810;50.860;19.226;2023-03-07T05:11:24;97186.31;;;1.04;86.05
58018;BME280;43810;50.860;19.226;2023-03-07T05:13:50;97176.13;;;0.94;86.12
58018;BME280;43810;50.860;19.226;2023-03-07T05:16:16;97181.81;;;0.96;86.57
58018;BME280;43810;50.860;19.226;2023-03-07T05:18:42;97180.03;;;1.05;86.31
58018;BME280;43810;50.860;19.226;2023-03-07T05:21:08;97185.72;;;1.07;86.19
58018;BME280;43810;50.860;19.226;2023-03-07T05:23:34;97182.97;;;1.12;85.79
58018;BME280;43810;50.860;19.226;2023-03-07T05:26:00;97181.81;;;0.96;86.00
58018;BME280;43810;50.860;19.226;2023-03-07T05:28:26;97181.34;;;0.94;85.82
58018;BME280;43810;50.860;19.226;2023-03-07T05:30:52;97179.19;;;0.87;85.83
58018;BME280;43810;50.860;19.226;2023-03-07T05:33:17;97184.31;;;0.79;86.17
58018;BME280;43810;50.860;19.226;2023-03-07T05:35:43;97184.50;;;0.82;86.04
58018;BME280;43810;50.860;19.226;2023-03-07T05:38:09;97178.66;;;0.77;86.32
58018;BME280;43810;50.860;19.226;2023-03-07T05:40:36;97179.25;;;0.74;86.35
58018;BME280;43810;50.860;19.226;2023-03-07T05:43:02;97175.25;;;0.76;86.52
58018;BME280;43810;50.860;19.226;2023-03-07T05:45:28;97178.22;;;0.83;86.51
58018;BME280;43810;50.860;19.226;2023-03-07T05:47:54;97170.59;;;0.95;86.86
58018;BME280;43810;50.860;19.226;2023-03-07T05:50:20;97177.41;;;1.05;86.37
58018;BME280;43810;50.860;19.226;2023-03-07T05:52:46;97166.31;;;0.99;85.95
58018;BME280;43810;50.860;19.226;2023-03-07T05:55:12;97178.78;;;1.03;85.74
58018;BME280;43810;50.860;19.226;2023-03-07T05:57:38;97174.69;;;1.10;85.45
58018;BME280;43810;50.860;19.226;2023-03-07T06:00:05;97178.63;;;0.99;85.77
58018;BME280;43810;50.860;19.226;2023-03-07T06:02:31;97170.91;;;0.94;85.78
58018;BME280;43810;50.860;19.226;2023-03-07T06:04:57;97165.47;;;0.90;85.26
58018;BME280;43810;50.860;19.226;2023-03-07T06:07:23;97168.81;;;0.82;85.45
58018;BME280;43810;50.860;19.226;2023-03-07T06:09:49;97175.72;;;0.78;85.24
58018;BME280;43810;50.860;19.226;2023-03-07T06:12:15;97167.25;;;0.73;85.31
58018;BME280;43810;50.860;19.226;2023-03-07T06:14:40;97176.38;;;0.84;85.34
58018;BME280;43810;50.860;19.226;2023-03-07T06:17:06;97174.94;;;1.00;85.11
58018;BME280;43810;50.860;19.226;2023-03-07T06:19:32;97172.63;;;0.98;85.40
58018;BME280;43810;50.860;19.226;2023-03-07T06:21:58;97166.78;;;1.02;84.95
58018;BME280;43810;50.860;19.226;2023-03-07T06:24:24;97165.41;;;1.04;84.98
58018;BME280;43810;50.860;19.226;2023-03-07T06:26:50;97169.09;;;1.03;84.82
58018;BME280;43810;50.860;19.226;2023-03-07T06:29:16;97169.34;;;0.93;84.99
58018;BME280;43810;50.860;19.226;2023-03-07T06:31:41;97170.13;;;0.93;85.27
58018;BME280;43810;50.860;19.226;2023-03-07T06:34:07;97157.81;;;0.94;84.91
58018;BME280;43810;50.860;19.226;2023-03-07T06:36:33;97165.78;;;0.89;85.04
58018;BME280;43810;50.860;19.226;2023-03-07T06:38:59;97165.31;;;0.87;85.40
58018;BME280;43810;50.860;19.226;2023-03-07T06:41:25;97165.28;;;1.09;85.49
58018;BME280;43810;50.860;19.226;2023-03-07T06:43:52;97161.81;;;1.22;84.96
58018;BME280;43810;50.860;19.226;2023-03-07T06:46:18;97156.78;;;1.34;84.51
58018;BME280;43810;50.860;19.226;2023-03-07T06:48:45;97163.72;;;1.48;83.99
58018;BME280;43810;50.860;19.226;2023-03-07T06:51:11;97161.88;;;1.48;83.76
58018;BME280;43810;50.860;19.226;2023-03-07T06:53:37;97165.47;;;1.61;84.05
58018;BME280;43810;50.860;19.226;2023-03-07T06:56:03;97161.19;;;1.65;83.59
58018;BME280;43810;50.860;19.226;2023-03-07T06:58:29;97155.97;;;1.82;83.07
58018;BME280;43810;50.860;19.226;2023-03-07T07:00:55;97150.75;;;1.91;82.79
58018;BME280;43810;50.860;19.226;2023-03-07T07:03:21;97148.44;;;1.98;82.40
58018;BME280;43810;50.860;19.226;2023-03-07T07:05:47;97152.16;;;2.14;82.24
58018;BME280;43810;50.860;19.226;2023-03-07T07:08:13;97155.09;;;2.21;81.48
58018;BME280;43810;50.860;19.226;2023-03-07T07:10:38;97142.75;;;2.30;80.99
58018;BME280;43810;50.860;19.226;2023-03-07T07:13:04;97136.28;;;2.36;80.61
58018;BME280;43810;50.860;19.226;2023-03-07T07:15:30;97143.38;;;2.44;80.39
58018;BME280;43810;50.860;19.226;2023-03-07T07:17:57;97140.44;;;2.46;80.26
58018;BME280;43810;50.860;19.226;2023-03-07T07:20:22;97136.88;;;2.51;80.17
58018;BME280;43810;50.860;19.226;2023-03-07T07:22:49;97138.72;;;2.50;79.75
58018;BME280;43810;50.860;19.226;2023-03-07T07:25:15;97133.50;;;2.59;79.41
58018;BME280;43810;50.860;19.226;2023-03-07T07:27:41;97139.97;;;2.61;78.87
58018;BME280;43810;50.860;19.226;2023-03-07T07:30:07;97130.84;;;2.67;78.63
58018;BME280;43810;50.860;19.226;2023-03-07T07:32:34;97125.44;;;2.64;79.12
58018;BME280;43810;50.860;19.226;2023-03-07T07:34:59;97125.56;;;2.85;78.67
58018;BME280;43810;50.860;19.226;2023-03-07T07:37:25;97119.66;;;3.05;77.96
58018;BME280;43810;50.860;19.226;2023-03-07T07:39:51;97126.53;;;3.18;77.06
58018;BME280;43810;50.860;19.226;2023-03-07T07:42:17;97129.59;;;3.29;77.11
58018;BME280;43810;50.860;19.226;2023-03-07T07:44:43;97125.00;;;3.46;76.84
58018;BME280;43810;50.860;19.226;2023-03-07T07:47:11;97130.56;;;3.45;76.45
58018;BME280;43810;50.860;19.226;2023-03-07T07:49:37;97119.44;;;3.48;76.00
58018;BME280;43810;50.860;19.226;2023-03-07T07:52:03;97127.09;;;3.62;75.79
58018;BME280;43810;50.860;19.226;2023-03-07T07:54:29;97116.75;;;3.65;74.94
58018;BME280;43810;50.860;19.226;2023-03-07T07:56:55;97111.97;;;3.88;74.54
58018;BME280;43810;50.860;19.226;2023-03-07T07:59:22;97106.19;;;3.95;74.95
58018;BME280;43810;50.860;19.226;2023-03-07T08:01:49;97106.38;;;4.10;73.66
58018;BME280;43810;50.860;19.226;2023-03-07T08:04:14;97102.91;;;4.18;73.35
58018;BME280;43810;50.860;19.226;2023-03-07T08:06:40;97094.06;;;4.23;72.85
58018;BME280;43810;50.860;19.226;2023-03-07T08:09:09;97110.13;;;4.42;72.60
58018;BME280;43810;50.860;19.226;2023-03-07T08:11:35;97101.41;;;4.62;71.71
58018;BME280;43810;50.860;19.226;2023-03-07T08:14:01;97107.56;;;4.67;71.42
58018;BME280;43810;50.860;19.226;2023-03-07T08:16:28;97093.69;;;4.78;71.23
58018;BME280;43810;50.860;19.226;2023-03-07T08:18:55;97095.91;;;5.00;71.08
58018;BME280;43810;50.860;19.226;2023-03-07T08:21:22;97099.09;;;5.18;68.70
58018;BME280;43810;50.860;19.226;2023-03-07T08:23:48;97104.69;;;5.29;71.01
58018;BME280;43810;50.860;19.226;2023-03-07T08:26:14;97106.66;;;5.56;70.23
58018;BME280;43810;50.860;19.226;2023-03-07T08:28:41;97089.72;;;5.82;66.40
58018;BME280;43810;50.860;19.226;2023-03-07T08:31:19;97085.44;;;5.77;67.53
58018;BME280;43810;50.860;19.226;2023-03-07T08:33:48;97089.31;;;5.67;68.24
58018;BME280;43810;50.860;19.226;2023-03-07T08:36:14;97089.84;;;5.73;67.38
58018;BME280;43810;50.860;19.226;2023-03-07T08:38:41;97087.97;;;5.73;66.55
58018;BME280;43810;50.860;19.226;2023-03-07T08:41:08;97083.53;;;6.02;67.58
58018;BME280;43810;50.860;19.226;2023-03-07T08:43:35;97098.25;;;6.03;65.45
58018;BME280;43810;50.860;19.226;2023-03-07T08:46:03;97100.25;;;5.94;65.50
58018;BME280;43810;50.860;19.226;2023-03-07T08:48:29;97104.19;;;5.88;66.11
58018;BME280;43810;50.860;19.226;2023-03-07T08:50:55;97092.38;;;5.82;64.86
58018;BME280;43810;50.860;19.226;2023-03-07T08:53:21;97089.94;;;5.77;66.11
58018;BME280;43810;50.860;19.226;2023-03-07T08:55:48;97082.03;;;5.77;65.06
58018;BME280;43810;50.860;19.226;2023-03-07T08:58:14;97091.44;;;6.02;63.21
58018;BME280;43810;50.860;19.226;2023-03-07T09:00:40;97086.53;;;5.88;64.41
58018;BME280;43810;50.860;19.226;2023-03-07T09:03:06;97080.66;;;6.07;64.43
58018;BME280;43810;50.860;19.226;2023-03-07T09:05:36;97082.63;;;6.38;64.07
58018;BME280;43810;50.860;19.226;2023-03-07T09:08:05;97078.06;;;6.51;64.01
58018;BME280;43810;50.860;19.226;2023-03-07T09:10:32;97081.75;;;6.62;62.33
58018;BME280;43810;50.860;19.226;2023-03-07T09:12:57;97074.56;;;6.46;61.01
58018;BME280;43810;50.860;19.226;2023-03-07T09:15:24;97073.22;;;6.25;63.14
58018;BME280;43810;50.860;19.226;2023-03-07T09:17:50;97069.66;;;6.33;63.06
58018;BME280;43810;50.860;19.226;2023-03-07T09:20:16;97064.13;;;5.94;63.16
58018;BME280;43810;50.860;19.226;2023-03-07T09:22:42;97063.69;;;6.20;62.69
58018;BME280;43810;50.860;19.226;2023-03-07T09:25:09;97045.69;;;6.38;62.17
58018;BME280;43810;50.860;19.226;2023-03-07T09:27:35;97053.81;;;6.61;60.38
58018;BME280;43810;50.860;19.226;2023-03-07T09:30:01;97044.59;;;6.55;61.27
58018;BME280;43810;50.860;19.226;2023-03-07T09:32:26;97041.41;;;6.61;60.38
58018;BME280;43810;50.860;19.226;2023-03-07T09:34:52;97040.28;;;6.78;62.54
58018;BME280;43810;50.860;19.226;2023-03-07T09:37:18;97029.94;;;7.01;60.61
58018;BME280;43810;50.860;19.226;2023-03-07T09:39:47;97037.69;;;6.94;60.46
58018;BME280;43810;50.860;19.226;2023-03-07T09:42:19;97023.63;;;7.05;61.66
58018;BME280;43810;50.860;19.226;2023-03-07T09:49:51;97024.31;;;7.53;57.02
58018;BME280;43810;50.860;19.226;2023-03-07T09:52:23;97023.34;;;7.61;59.98
58018;BME280;43810;50.860;19.226;2023-03-07T09:54:52;97018.06;;;7.61;56.72
58018;BME280;43810;50.860;19.226;2023-03-07T09:57:25;97010.00;;;7.73;59.13
58018;BME280;43810;50.860;19.226;2023-03-07T09:59:57;97007.44;;;7.96;56.85
58018;BME280;43810;50.860;19.226;2023-03-07T10:02:34;97008.56;;;8.14;54.51
58018;BME280;43810;50.860;19.226;2023-03-07T10:07:33;96996.41;;;8.33;55.68
58018;BME280;43810;50.860;19.226;2023-03-07T10:10:04;96988.56;;;8.40;54.35
58018;BME280;43810;50.860;19.226;2023-03-07T10:29:24;96985.03;;;7.51;54.18
58018;BME280;43810;50.860;19.226;2023-03-07T10:32:09;96981.16;;;7.30;54.62
58018;BME280;43810;50.860;19.226;2023-03-07T10:34:39;96973.81;;;7.58;56.41
58018;BME280;43810;50.860;19.226;2023-03-07T10:37:19;96955.06;;;7.63;52.71
58018;BME280;43810;50.860;19.226;2023-03-07T10:39:54;96954.06;;;7.71;51.86
58018;BME280;43810;50.860;19.226;2023-03-07T10:42:25;96957.63;;;7.79;52.68
58018;BME280;43810;50.860;19.226;2023-03-07T10:44:56;96959.25;;;8.06;53.82
58018;BME280;43810;50.860;19.226;2023-03-07T10:47:24;96959.84;;;8.38;53.58
58018;BME280;43810;50.860;19.226;2023-03-07T10:49:53;96948.16;;;8.88;53.32
58018;BME280;43810;50.860;19.226;2023-03-07T10:52:31;96948.28;;;9.25;52.47
58018;BME280;43810;50.860;19.226;2023-03-07T10:55:35;96938.31;;;9.42;49.81
58018;BME280;43810;50.860;19.226;2023-03-07T11:03:56;96937.59;;;7.78;53.22
58018;BME280;43810;50.860;19.226;2023-03-07T11:14:50;96918.25;;;9.41;48.61
58018;BME280;43810;50.860;19.226;2023-03-07T11:17:21;96915.13;;;9.65;47.33
58018;BME280;43810;50.860;19.226;2023-03-07T11:19:52;96916.50;;;9.55;48.51
58018;BME280;43810;50.860;19.226;2023-03-07T11:22:24;96911.06;;;9.45;47.66
58018;BME280;43810;50.860;19.226;2023-03-07T11:24:56;96917.38;;;9.33;47.87
58018;BME280;43810;50.860;19.226;2023-03-07T11:30:44;96924.66;;;8.60;49.74
58018;BME280;43810;50.860;19.226;2023-03-07T11:33:23;96919.16;;;8.23;50.67
58018;BME280;43810;50.860;19.226;2023-03-07T11:36:15;96910.91;;;8.28;50.67
58018;BME280;43810;50.860;19.226;2023-03-07T11:38:59;96908.66;;;8.31;51.57
58018;BME280;43810;50.860;19.226;2023-03-07T11:41:39;96901.44;;;8.05;50.78
58018;BME280;43810;50.860;19.226;2023-03-07T11:57:29;96875.88;;;8.35;48.16
58018;BME280;43810;50.860;19.226;2023-03-07T12:00:19;96884.59;;;8.39;49.95
58018;BME280;43810;50.860;19.226;2023-03-07T12:08:33;96878.78;;;7.84;50.86
58018;BME280;43810;50.860;19.226;2023-03-07T12:11:26;96881.19;;;7.93;50.57
58018;BME280;43810;50.860;19.226;2023-03-07T12:14:31;96868.81;;;8.20;52.22
58018;BME280;43810;50.860;19.226;2023-03-07T12:17:41;96874.66;;;8.55;50.73
58018;BME280;43810;50.860;19.226;2023-03-07T12:23:05;96859.69;;;8.67;48.42
58018;BME280;43810;50.860;19.226;2023-03-07T12:25:40;96868.72;;;8.39;50.62
58018;BME280;43810;50.860;19.226;2023-03-07T12:28:15;96858.63;;;8.45;50.45
58018;BME280;43810;50.860;19.226;2023-03-07T12:36:15;96839.38;;;8.74;49.79
58018;BME280;43810;50.860;19.226;2023-03-07T12:38:56;96843.66;;;8.56;49.37
58018;BME280;43810;50.860;19.226;2023-03-07T12:41:39;96852.56;;;8.44;49.15
58018;BME280;43810;50.860;19.226;2023-03-07T12:46:48;96844.53;;;8.37;49.93
58018;BME280;43810;50.860;19.226;2023-03-07T12:57:39;96837.41;;;8.18;50.33
58018;BME280;43810;50.860;19.226;2023-03-07T13:00:09;96826.69;;;8.08;50.69
58018;BME280;43810;50.860;19.226;2023-03-07T13:03:19;96835.84;;;8.14;50.20
58018;BME280;43810;50.860;19.226;2023-03-07T13:05:37;96841.66;;;8.23;50.86
58018;BME280;43810;50.860;19.226;2023-03-07T13:08:04;96837.81;;;8.43;49.43
58018;BME280;43810;50.860;19.226;2023-03-07T13:10:31;96826.41;;;8.39;50.49
58018;BME280;43810;50.860;19.226;2023-03-07T13:14:22;96844.22;;;8.42;50.19
58018;BME280;43810;50.860;19.226;2023-03-07T13:16:37;96842.34;;;8.43;49.55
58018;BME280;43810;50.860;19.226;2023-03-07T13:24:52;96821.44;;;8.11;51.17
58018;BME280;43810;50.860;19.226;2023-03-07T13:45:54;96822.84;;;7.60;51.41
58018;BME280;43810;50.860;19.226;2023-03-07T13:56:11;96808.47;;;7.38;53.93
58018;BME280;43810;50.860;19.226;2023-03-07T13:58:57;96813.50;;;7.43;52.76
58018;BME280;43810;50.860;19.226;2023-03-07T14:01:40;96819.59;;;7.47;53.41
58018;BME280;43810;50.860;19.226;2023-03-07T14:04:21;96807.38;;;7.39;52.77
58018;BME280;43810;50.860;19.226;2023-03-07T14:09:52;96802.66;;;7.29;53.96
58018;BME280;43810;50.860;19.226;2023-03-07T14:26:18;96799.91;;;7.22;54.35
58018;BME280;43810;50.860;19.226;2023-03-07T14:28:50;96792.59;;;7.15;54.37
58018;BME280;43810;50.860;19.226;2023-03-07T14:31:28;96795.22;;;6.96;55.00
58018;BME280;43810;50.860;19.226;2023-03-07T14:33:55;96793.69;;;6.95;54.32
58018;BME280;43810;50.860;19.226;2023-03-07T14:36:24;96790.63;;;6.93;54.94
58018;BME280;43810;50.860;19.226;2023-03-07T14:38:56;96793.38;;;6.96;55.10
58018;BME280;43810;50.860;19.226;2023-03-07T14:52:20;96794.75;;;7.09;54.95
58018;BME280;43810;50.860;19.226;2023-03-07T14:54:48;96785.91;;;7.21;54.76
58018;BME280;43810;50.860;19.226;2023-03-07T14:57:37;96783.75;;;7.27;54.46
58018;BME280;43810;50.860;19.226;2023-03-07T15:02:45;96778.25;;;7.58;52.98
58018;BME280;43810;50.860;19.226;2023-03-07T15:05:17;96776.69;;;7.53;53.96
58018;BME280;43810;50.860;19.226;2023-03-07T15:07:43;96769.94;;;7.56;53.74
58018;BME280;43810;50.860;19.226;2023-03-07T15:10:27;96773.91;;;7.69;53.46
58018;BME280;43810;50.860;19.226;2023-03-07T15:12:56;96774.91;;;7.61;54.42
58018;BME280;43810;50.860;19.226;2023-03-07T15:15:31;96762.28;;;7.51;54.05
58018;BME280;43810;50.860;19.226;2023-03-07T15:18:17;96758.13;;;7.50;53.27
58018;BME280;43810;50.860;19.226;2023-03-07T15:20:46;96756.06;;;7.40;53.89
58018;BME280;43810;50.860;19.226;2023-03-07T15:23:19;96754.22;;;7.21;53.73
58018;BME280;43810;50.860;19.226;2023-03-07T15:25:46;96751.94;;;7.00;55.19
58018;BME280;43810;50.860;19.226;2023-03-07T15:28:17;96759.22;;;6.88;55.66
58018;BME280;43810;50.860;19.226;2023-03-07T15:30:49;96751.31;;;6.88;55.82
58018;BME280;43810;50.860;19.226;2023-03-07T15:41:41;96762.25;;;6.70;56.07
58018;BME280;43810;50.860;19.226;2023-03-07T15:46:47;96762.25;;;6.51;56.35
58018;BME280;43810;50.860;19.226;2023-03-07T15:49:21;96765.78;;;6.39;56.96
58018;BME280;43810;50.860;19.226;2023-03-07T15:51:52;96751.09;;;6.23;57.54
58018;BME280;43810;50.860;19.226;2023-03-07T15:54:30;96752.41;;;6.32;58.35
58018;BME280;43810;50.860;19.226;2023-03-07T15:57:00;96745.88;;;6.42;56.84
58018;BME280;43810;50.860;19.226;2023-03-07T16:01:55;96745.13;;;6.26;58.02